sensor_id;sensor_type;location;lat;lon;timestamp;temperature;humidity
1381;DHT22;684;48.342;10.096;2023-05-15T00:01:18;12.40;43.80
1381;DHT22;684;48.342;10.096;2023-05-15T00:03:45;12.40;43.80
1381;DHT22;684;48.342;10.096;2023-05-15T00:06:12;12.40;44.00
1381;DHT22;684;48.342;10.096;2023-05-15T00:08:39;12.30;43.90
1381;DHT22;684;48.342;10.096;2023-05-15T00:11:06;12.30;43.90
1381;DHT22;684;48.342;10.096;2023-05-15T00:13:33;12.30;43.90
1381;DHT22;684;48.342;10.096;2023-05-15T00:16:01;12.20;44.00
1381;DHT22;684;48.342;10.096;2023-05-15T00:18:27;12.20;44.70
1381;DHT22;684;48.342;10.096;2023-05-15T00:20:54;12.30;44.60
1381;DHT22;684;48.342;10.096;2023-05-15T00:23:21;12.20;44.80
1381;DHT22;684;48.342;10.096;2023-05-15T00:25:48;12.20;45.20
1381;DHT22;684;48.342;10.096;2023-05-15T00:28:14;12.20;45.20
1381;DHT22;684;48.342;10.096;2023-05-15T00:30:41;12.10;45.50
1381;DHT22;684;48.342;10.096;2023-05-15T00:33:09;12.00;45.70
1381;DHT22;684;48.342;10.096;2023-05-15T00:35:36;12.00;45.80
1381;DHT22;684;48.342;10.096;2023-05-15T00:38:03;12.00;46.00
1381;DHT22;684;48.342;10.096;2023-05-15T00:40:30;12.00;46.00
1381;DHT22;684;48.342;10.096;2023-05-15T00:42:58;11.90;46.00
1381;DHT22;684;48.342;10.096;2023-05-15T00:45:26;11.90;46.10
1381;DHT22;684;48.342;10.096;2023-05-15T00:47:54;11.90;46.20
1381;DHT22;684;48.342;10.096;2023-05-15T00:50:23;11.90;46.30
1381;DHT22;684;48.342;10.096;2023-05-15T00:52:50;11.90;46.50
1381;DHT22;684;48.342;10.096;2023-05-15T00:55:17;11.90;46.50
1381;DHT22;684;48.342;10.096;2023-05-15T00:57:44;11.90;46.60
1381;DHT22;684;48.342;10.096;2023-05-15T01:00:12;11.90;46.60
1381;DHT22;684;48.342;10.096;2023-05-15T01:02:41;11.90;46.80
1381;DHT22;684;48.342;10.096;2023-05-15T01:05:08;11.90;46.80
1381;DHT22;684;48.342;10.096;2023-05-15T01:07:42;11.90;46.70
1381;DHT22;684;48.342;10.096;2023-05-15T01:10:11;11.90;46.90
1381;DHT22;684;48.342;10.096;2023-05-15T01:12:39;11.90;46.80
1381;DHT22;684;48.342;10.096;2023-05-15T01:15:07;11.90;46.90
1381;DHT22;684;48.342;10.096;2023-05-15T01:17:34;11.90;47.10
1381;DHT22;684;48.342;10.096;2023-05-15T01:20:02;11.90;47.10
1381;DHT22;684;48.342;10.096;2023-05-15T01:22:44;11.90;47.10
1381;DHT22;684;48.342;10.096;2023-05-15T01:25:42;11.90;47.30
1381;DHT22;684;48.342;10.096;2023-05-15T01:28:14;11.90;47.50
1381;DHT22;684;48.342;10.096;2023-05-15T01:30:44;11.90;47.10
1381;DHT22;684;48.342;10.096;2023-05-15T01:33:17;11.90;47.80
1381;DHT22;684;48.342;10.096;2023-05-15T01:35:49;11.90;47.30
1381;DHT22;684;48.342;10.096;2023-05-15T01:38:22;11.90;47.20
1381;DHT22;684;48.342;10.096;2023-05-15T01:40:55;11.90;47.10
1381;DHT22;684;48.342;10.096;2023-05-15T01:43:27;11.80;47.10
1381;DHT22;684;48.342;10.096;2023-05-15T01:45:55;11.80;47.30
1381;DHT22;684;48.342;10.096;2023-05-15T01:48:24;11.80;47.40
1381;DHT22;684;48.342;10.096;2023-05-15T01:50:51;11.80;47.50
1381;DHT22;684;48.342;10.096;2023-05-15T01:53:20;11.70;47.60
1381;DHT22;684;48.342;10.096;2023-05-15T01:55:47;11.70;47.60
1381;DHT22;684;48.342;10.096;2023-05-15T01:58:15;11.70;47.60
1381;DHT22;684;48.342;10.096;2023-05-15T02:00:44;11.60;47.50
1381;DHT22;684;48.342;10.096;2023-05-15T02:03:12;11.60;47.60
1381;DHT22;684;48.342;10.096;2023-05-15T02:05:39;11.50;47.70
1381;DHT22;684;48.342;10.096;2023-05-15T02:08:08;11.50;47.80
1381;DHT22;684;48.342;10.096;2023-05-15T02:10:35;11.50;47.60
1381;DHT22;684;48.342;10.096;2023-05-15T02:13:04;11.50;47.60
1381;DHT22;684;48.342;10.096;2023-05-15T02:15:33;11.40;47.70
1381;DHT22;684;48.342;10.096;2023-05-15T02:18:02;11.40;47.90
1381;DHT22;684;48.342;10.096;2023-05-15T02:20:29;11.40;48.00
1381;DHT22;684;48.342;10.096;2023-05-15T02:22:56;11.30;48.00
1381;DHT22;684;48.342;10.096;2023-05-15T02:25:30;11.30;47.90
1381;DHT22;684;48.342;10.096;2023-05-15T02:28:00;11.20;48.00
1381;DHT22;684;48.342;10.096;2023-05-15T02:30:34;11.20;48.00
1381;DHT22;684;48.342;10.096;2023-05-15T02:33:11;11.10;48.80
1381;DHT22;684;48.342;10.096;2023-05-15T02:35:45;11.10;49.20
1381;DHT22;684;48.342;10.096;2023-05-15T02:38:16;11.10;49.30
1381;DHT22;684;48.342;10.096;2023-05-15T02:40:45;11.10;49.10
1381;DHT22;684;48.342;10.096;2023-05-15T02:43:14;11.10;49.30
1381;DHT22;684;48.342;10.096;2023-05-15T02:45:44;11.00;48.90
1381;DHT22;684;48.342;10.096;2023-05-15T02:48:13;11.00;49.10
1381;DHT22;684;48.342;10.096;2023-05-15T02:50:42;11.00;49.10
1381;DHT22;684;48.342;10.096;2023-05-15T02:53:09;11.00;48.80
1381;DHT22;684;48.342;10.096;2023-05-15T02:55:38;11.00;48.80
1381;DHT22;684;48.342;10.096;2023-05-15T02:58:05;10.90;48.70
1381;DHT22;684;48.342;10.096;2023-05-15T03:00:32;10.90;48.70
1381;DHT22;684;48.342;10.096;2023-05-15T03:02:59;10.90;48.60
1381;DHT22;684;48.342;10.096;2023-05-15T03:05:27;10.90;48.60
1381;DHT22;684;48.342;10.096;2023-05-15T03:07:54;10.90;48.50
1381;DHT22;684;48.342;10.096;2023-05-15T03:10:20;10.90;48.40
1381;DHT22;684;48.342;10.096;2023-05-15T03:12:48;10.90;48.50
1381;DHT22;684;48.342;10.096;2023-05-15T03:15:15;10.80;48.40
1381;DHT22;684;48.342;10.096;2023-05-15T03:17:42;10.80;48.50
1381;DHT22;684;48.342;10.096;2023-05-15T03:20:09;10.80;48.50
1381;DHT22;684;48.342;10.096;2023-05-15T03:22:39;10.80;49.30
1381;DHT22;684;48.342;10.096;2023-05-15T03:25:08;10.80;48.60
1381;DHT22;684;48.342;10.096;2023-05-15T03:27:36;10.90;48.80
1381;DHT22;684;48.342;10.096;2023-05-15T03:30:03;10.90;48.70
1381;DHT22;684;48.342;10.096;2023-05-15T03:32:30;10.90;48.50
1381;DHT22;684;48.342;10.096;2023-05-15T03:34:56;10.90;48.40
1381;DHT22;684;48.342;10.096;2023-05-15T03:37:23;10.90;48.40
1381;DHT22;684;48.342;10.096;2023-05-15T03:39:51;10.90;48.30
1381;DHT22;684;48.342;10.096;2023-05-15T03:42:18;10.90;48.40
1381;DHT22;684;48.342;10.096;2023-05-15T03:44:47;10.90;48.30
1381;DHT22;684;48.342;10.096;2023-05-15T03:47:14;11.00;48.40
1381;DHT22;684;48.342;10.096;2023-05-15T03:49:41;10.90;48.50
1381;DHT22;684;48.342;10.096;2023-05-15T03:52:08;10.90;48.40
1381;DHT22;684;48.342;10.096;2023-05-15T03:54:35;10.90;48.40
1381;DHT22;684;48.342;10.096;2023-05-15T03:57:03;10.90;48.50
1381;DHT22;684;48.342;10.096;2023-05-15T03:59:30;11.00;48.60
1381;DHT22;684;48.342;10.096;2023-05-15T04:01:57;11.00;48.50
1381;DHT22;684;48.342;10.096;2023-05-15T04:04:24;10.90;48.60
1381;DHT22;684;48.342;10.096;2023-05-15T04:06:51;11.00;48.60
1381;DHT22;684;48.342;10.096;2023-05-15T04:09:17;11.00;48.50
1381;DHT22;684;48.342;10.096;2023-05-15T04:11:44;11.00;48.50
1381;DHT22;684;48.342;10.096;2023-05-15T04:14:12;11.10;48.40
1381;DHT22;684;48.342;10.096;2023-05-15T04:16:39;11.00;48.30
1381;DHT22;684;48.342;10.096;2023-05-15T04:19:06;11.10;48.90
1381;DHT22;684;48.342;10.096;2023-05-15T04:21:32;11.10;48.30
1381;DHT22;684;48.342;10.096;2023-05-15T04:23:59;11.20;48.10
1381;DHT22;684;48.342;10.096;2023-05-15T04:26:26;11.20;48.10
1381;DHT22;684;48.342;10.096;2023-05-15T04:28:52;11.20;48.00
1381;DHT22;684;48.342;10.096;2023-05-15T04:31:22;11.30;48.00
1381;DHT22;684;48.342;10.096;2023-05-15T04:33:49;11.30;47.90
1381;DHT22;684;48.342;10.096;2023-05-15T04:36:15;11.40;47.80
1381;DHT22;684;48.342;10.096;2023-05-15T04:38:42;11.40;47.80
1381;DHT22;684;48.342;10.096;2023-05-15T04:41:09;11.50;47.60
1381;DHT22;684;48.342;10.096;2023-05-15T04:43:36;11.50;47.60
1381;DHT22;684;48.342;10.096;2023-05-15T04:46:03;11.50;47.50
1381;DHT22;684;48.342;10.096;2023-05-15T04:48:31;11.60;47.30
1381;DHT22;684;48.342;10.096;2023-05-15T04:50:58;11.60;47.20
1381;DHT22;684;48.342;10.096;2023-05-15T04:53:25;11.60;47.10
1381;DHT22;684;48.342;10.096;2023-05-15T04:55:51;11.60;47.00
1381;DHT22;684;48.342;10.096;2023-05-15T04:58:18;11.60;46.90
1381;DHT22;684;48.342;10.096;2023-05-15T05:00:45;11.70;46.80
1381;DHT22;684;48.342;10.096;2023-05-15T05:03:11;11.70;46.60
1381;DHT22;684;48.342;10.096;2023-05-15T05:05:39;11.80;46.40
1381;DHT22;684;48.342;10.096;2023-05-15T05:08:06;11.80;46.30
1381;DHT22;684;48.342;10.096;2023-05-15T05:10:33;11.80;46.20
1381;DHT22;684;48.342;10.096;2023-05-15T05:13:00;12.00;46.20
1381;DHT22;684;48.342;10.096;2023-05-15T05:15:26;11.90;46.10
1381;DHT22;684;48.342;10.096;2023-05-15T05:17:53;12.00;46.00
1381;DHT22;684;48.342;10.096;2023-05-15T05:20:20;12.00;46.00
1381;DHT22;684;48.342;10.096;2023-05-15T05:22:48;12.00;45.60
1381;DHT22;684;48.342;10.096;2023-05-15T05:25:15;12.00;45.40
1381;DHT22;684;48.342;10.096;2023-05-15T05:27:42;12.10;45.40
1381;DHT22;684;48.342;10.096;2023-05-15T05:30:09;12.10;45.30
1381;DHT22;684;48.342;10.096;2023-05-15T05:32:36;12.10;45.20
1381;DHT22;684;48.342;10.096;2023-05-15T05:35:04;12.20;45.10
1381;DHT22;684;48.342;10.096;2023-05-15T05:37:31;12.30;44.80
1381;DHT22;684;48.342;10.096;2023-05-15T05:39:59;12.40;44.30
1381;DHT22;684;48.342;10.096;2023-05-15T05:42:26;12.40;44.40
1381;DHT22;684;48.342;10.096;2023-05-15T05:44:52;12.50;44.50
1381;DHT22;684;48.342;10.096;2023-05-15T05:47:19;12.50;44.50
1381;DHT22;684;48.342;10.096;2023-05-15T05:49:46;12.50;44.40
1381;DHT22;684;48.342;10.096;2023-05-15T05:52:12;12.50;44.10
1381;DHT22;684;48.342;10.096;2023-05-15T05:54:40;12.50;44.20
1381;DHT22;684;48.342;10.096;2023-05-15T05:57:08;12.60;44.30
1381;DHT22;684;48.342;10.096;2023-05-15T05:59:35;12.70;44.30
1381;DHT22;684;48.342;10.096;2023-05-15T06:02:02;12.70;44.10
1381;DHT22;684;48.342;10.096;2023-05-15T06:06:56;12.90;44.00
1381;DHT22;684;48.342;10.096;2023-05-15T06:09:23;13.00;43.80
1381;DHT22;684;48.342;10.096;2023-05-15T06:11:50;13.10;43.60
1381;DHT22;684;48.342;10.096;2023-05-15T06:14:18;13.20;43.30
1381;DHT22;684;48.342;10.096;2023-05-15T06:16:45;13.30;42.90
1381;DHT22;684;48.342;10.096;2023-05-15T06:19:11;13.40;42.70
1381;DHT22;684;48.342;10.096;2023-05-15T06:21:38;13.50;42.50
1381;DHT22;684;48.342;10.096;2023-05-15T06:24:05;13.50;42.30
1381;DHT22;684;48.342;10.096;2023-05-15T06:26:32;13.70;42.10
1381;DHT22;684;48.342;10.096;2023-05-15T06:28:58;13.80;41.80
1381;DHT22;684;48.342;10.096;2023-05-15T06:31:27;13.90;41.70
1381;DHT22;684;48.342;10.096;2023-05-15T06:33:53;14.10;41.40
1381;DHT22;684;48.342;10.096;2023-05-15T06:36:20;14.40;40.70
1381;DHT22;684;48.342;10.096;2023-05-15T06:38:47;14.80;39.80
1381;DHT22;684;48.342;10.096;2023-05-15T06:41:13;15.70;37.70
1381;DHT22;684;48.342;10.096;2023-05-15T06:43:40;16.60;34.90
1381;DHT22;684;48.342;10.096;2023-05-15T06:46:07;17.10;32.00
1381;DHT22;684;48.342;10.096;2023-05-15T06:48:35;17.50;30.60
1381;DHT22;684;48.342;10.096;2023-05-15T06:51:02;17.90;27.80
1381;DHT22;684;48.342;10.096;2023-05-15T06:53:29;18.60;24.90
1381;DHT22;684;48.342;10.096;2023-05-15T06:55:56;19.90;22.00
1381;DHT22;684;48.342;10.096;2023-05-15T06:58:23;22.50;16.50
1381;DHT22;684;48.342;10.096;2023-05-15T07:00:50;26.00;10.00
1381;DHT22;684;48.342;10.096;2023-05-15T07:03:16;29.00;2.70
1381;DHT22;684;48.342;10.096;2023-05-15T07:05:45;31.40;1.00
1381;DHT22;684;48.342;10.096;2023-05-15T07:08:11;33.50;1.00
1381;DHT22;684;48.342;10.096;2023-05-15T07:10:38;35.00;1.00
1381;DHT22;684;48.342;10.096;2023-05-15T07:13:05;36.20;1.00
1381;DHT22;684;48.342;10.096;2023-05-15T07:15:31;37.30;1.00
1381;DHT22;684;48.342;10.096;2023-05-15T07:17:58;38.30;1.00
1381;DHT22;684;48.342;10.096;2023-05-15T07:20:25;39.00;1.00
1381;DHT22;684;48.342;10.096;2023-05-15T07:22:53;39.70;1.00
1381;DHT22;684;48.342;10.096;2023-05-15T07:25:19;39.80;1.00
1381;DHT22;684;48.342;10.096;2023-05-15T07:27:46;39.70;1.00
1381;DHT22;684;48.342;10.096;2023-05-15T07:30:13;40.40;1.00
1381;DHT22;684;48.342;10.096;2023-05-15T07:32:40;40.90;1.00
1381;DHT22;684;48.342;10.096;2023-05-15T07:35:08;41.10;1.00
1381;DHT22;684;48.342;10.096;2023-05-15T07:37:36;41.80;1.00
1381;DHT22;684;48.342;10.096;2023-05-15T07:40:05;42.30;1.00
1381;DHT22;684;48.342;10.096;2023-05-15T07:42:32;42.10;1.00
1381;DHT22;684;48.342;10.096;2023-05-15T07:44:59;42.60;1.00
1381;DHT22;684;48.342;10.096;2023-05-15T07:47:25;43.10;1.00
1381;DHT22;684;48.342;10.096;2023-05-15T07:49:52;42.40;1.00
1381;DHT22;684;48.342;10.096;2023-05-15T07:52:19;42.00;1.00
1381;DHT22;684;48.342;10.096;2023-05-15T07:54:45;41.80;1.00
1381;DHT22;684;48.342;10.096;2023-05-15T07:57:13;42.30;1.00
1381;DHT22;684;48.342;10.096;2023-05-15T07:59:40;43.30;1.00
1381;DHT22;684;48.342;10.096;2023-05-15T08:02:07;43.90;1.00
1381;DHT22;684;48.342;10.096;2023-05-15T08:04:34;44.50;1.00
1381;DHT22;684;48.342;10.096;2023-05-15T08:07:00;45.40;1.00
1381;DHT22;684;48.342;10.096;2023-05-15T08:09:27;45.20;1.00
1381;DHT22;684;48.342;10.096;2023-05-15T08:11:54;43.70;1.00
1381;DHT22;684;48.342;10.096;2023-05-15T08:14:22;41.60;1.00
1381;DHT22;684;48.342;10.096;2023-05-15T08:16:49;39.00;1.00
1381;DHT22;684;48.342;10.096;2023-05-15T08:19:16;38.10;1.00
1381;DHT22;684;48.342;10.096;2023-05-15T08:21:43;38.60;1.00
1381;DHT22;684;48.342;10.096;2023-05-15T08:24:10;39.80;1.00
1381;DHT22;684;48.342;10.096;2023-05-15T08:26:37;40.40;1.00
1381;DHT22;684;48.342;10.096;2023-05-15T08:29:03;38.60;1.00
1381;DHT22;684;48.342;10.096;2023-05-15T08:31:32;36.50;1.00
1381;DHT22;684;48.342;10.096;2023-05-15T08:33:58;34.30;1.00
1381;DHT22;684;48.342;10.096;2023-05-15T08:36:25;32.30;1.00
1381;DHT22;684;48.342;10.096;2023-05-15T08:38:52;30.50;1.00
1381;DHT22;684;48.342;10.096;2023-05-15T08:41:26;28.90;1.00
1381;DHT22;684;48.342;10.096;2023-05-15T08:43:56;27.60;1.00
1381;DHT22;684;48.342;10.096;2023-05-15T08:46:24;26.40;1.00
1381;DHT22;684;48.342;10.096;2023-05-15T08:48:52;25.50;1.00
1381;DHT22;684;48.342;10.096;2023-05-15T08:51:20;24.80;1.50
1381;DHT22;684;48.342;10.096;2023-05-15T08:53:47;24.20;3.30
1381;DHT22;684;48.342;10.096;2023-05-15T08:56:15;25.60;1.70
1381;DHT22;684;48.342;10.096;2023-05-15T08:58:44;29.10;1.00
1381;DHT22;684;48.342;10.096;2023-05-15T09:01:11;33.10;1.00
1381;DHT22;684;48.342;10.096;2023-05-15T09:03:39;36.30;1.00
1381;DHT22;684;48.342;10.096;2023-05-15T09:06:09;38.50;1.00
1381;DHT22;684;48.342;10.096;2023-05-15T09:08:36;40.50;1.00
1381;DHT22;684;48.342;10.096;2023-05-15T09:11:04;42.40;1.00
1381;DHT22;684;48.342;10.096;2023-05-15T09:13:32;43.90;1.00
1381;DHT22;684;48.342;10.096;2023-05-15T09:15:59;44.90;1.00
1381;DHT22;684;48.342;10.096;2023-05-15T09:18:26;45.40;1.00
1381;DHT22;684;48.342;10.096;2023-05-15T09:20:53;43.60;1.00
1381;DHT22;684;48.342;10.096;2023-05-15T09:23:25;40.60;1.00
1381;DHT22;684;48.342;10.096;2023-05-15T09:25:52;37.60;1.00
1381;DHT22;684;48.342;10.096;2023-05-15T09:28:25;35.30;1.00
1381;DHT22;684;48.342;10.096;2023-05-15T09:30:57;33.50;1.00
1381;DHT22;684;48.342;10.096;2023-05-15T09:33:30;31.90;1.00
1381;DHT22;684;48.342;10.096;2023-05-15T09:35:57;33.70;1.00
1381;DHT22;684;48.342;10.096;2023-05-15T09:38:25;36.70;1.00
1381;DHT22;684;48.342;10.096;2023-05-15T09:41:00;39.30;1.00
1381;DHT22;684;48.342;10.096;2023-05-15T09:43:28;39.50;1.00
1381;DHT22;684;48.342;10.096;2023-05-15T09:45:55;38.00;1.00
1381;DHT22;684;48.342;10.096;2023-05-15T09:48:22;39.00;1.00
1381;DHT22;684;48.342;10.096;2023-05-15T09:50:49;37.20;1.00
1381;DHT22;684;48.342;10.096;2023-05-15T09:53:15;34.80;1.00
1381;DHT22;684;48.342;10.096;2023-05-15T09:55:44;32.80;1.00
1381;DHT22;684;48.342;10.096;2023-05-15T09:58:14;31.20;1.00
1381;DHT22;684;48.342;10.096;2023-05-15T10:00:42;30.40;1.00
1381;DHT22;684;48.342;10.096;2023-05-15T10:03:10;30.20;1.00
1381;DHT22;684;48.342;10.096;2023-05-15T10:05:37;29.80;1.00
1381;DHT22;684;48.342;10.096;2023-05-15T10:08:04;29.30;1.00
1381;DHT22;684;48.342;10.096;2023-05-15T10:10:31;28.60;1.00
1381;DHT22;684;48.342;10.096;2023-05-15T10:13:00;27.90;1.00
1381;DHT22;684;48.342;10.096;2023-05-15T10:15:29;27.20;1.00
1381;DHT22;684;48.342;10.096;2023-05-15T10:17:56;26.60;1.00
1381;DHT22;684;48.342;10.096;2023-05-15T10:20:25;26.10;1.00
1381;DHT22;684;48.342;10.096;2023-05-15T10:22:53;25.70;1.00
1381;DHT22;684;48.342;10.096;2023-05-15T10:25:25;25.30;1.00
1381;DHT22;684;48.342;10.096;2023-05-15T10:27:53;25.00;1.00
1381;DHT22;684;48.342;10.096;2023-05-15T10:30:21;24.40;1.00
1381;DHT22;684;48.342;10.096;2023-05-15T10:32:48;23.80;1.80
1381;DHT22;684;48.342;10.096;2023-05-15T10:35:16;23.30;2.50
1381;DHT22;684;48.342;10.096;2023-05-15T10:37:43;23.00;3.80
1381;DHT22;684;48.342;10.096;2023-05-15T10:40:12;23.00;5.40
1381;DHT22;684;48.342;10.096;2023-05-15T10:42:41;22.90;5.50
1381;DHT22;684;48.342;10.096;2023-05-15T10:45:09;22.90;5.90
1381;DHT22;684;48.342;10.096;2023-05-15T10:47:37;22.60;6.10
1381;DHT22;684;48.342;10.096;2023-05-15T10:50:06;22.30;6.80
1381;DHT22;684;48.342;10.096;2023-05-15T10:52:35;21.90;7.80
1381;DHT22;684;48.342;10.096;2023-05-15T10:55:05;21.60;8.10
1381;DHT22;684;48.342;10.096;2023-05-15T10:57:32;21.40;8.90
1381;DHT22;684;48.342;10.096;2023-05-15T10:59:59;21.30;9.60
1381;DHT22;684;48.342;10.096;2023-05-15T11:02:27;21.00;10.10
1381;DHT22;684;48.342;10.096;2023-05-15T11:04:58;20.80;11.20
1381;DHT22;684;48.342;10.096;2023-05-15T11:07:26;20.60;12.70
1381;DHT22;684;48.342;10.096;2023-05-15T11:09:53;20.30;13.20
1381;DHT22;684;48.342;10.096;2023-05-15T11:12:21;20.10;13.50
1381;DHT22;684;48.342;10.096;2023-05-15T11:15:19;19.90;14.10
1381;DHT22;684;48.342;10.096;2023-05-15T11:18:02;19.80;14.30
1381;DHT22;684;48.342;10.096;2023-05-15T11:20:37;19.80;14.60
1381;DHT22;684;48.342;10.096;2023-05-15T11:23:05;19.70;14.30
1381;DHT22;684;48.342;10.096;2023-05-15T11:25:33;19.60;13.80
1381;DHT22;684;48.342;10.096;2023-05-15T11:28:02;19.50;13.40
1381;DHT22;684;48.342;10.096;2023-05-15T11:30:36;19.40;13.60
1381;DHT22;684;48.342;10.096;2023-05-15T11:33:05;19.30;13.20
1381;DHT22;684;48.342;10.096;2023-05-15T11:35:36;19.50;13.30
1381;DHT22;684;48.342;10.096;2023-05-15T11:38:11;19.70;13.00
1381;DHT22;684;48.342;10.096;2023-05-15T11:40:45;20.00;13.10
1381;DHT22;684;48.342;10.096;2023-05-15T11:43:20;20.20;13.20
1381;DHT22;684;48.342;10.096;2023-05-15T11:45:49;20.20;11.80
1381;DHT22;684;48.342;10.096;2023-05-15T11:48:16;20.20;12.20
1381;DHT22;684;48.342;10.096;2023-05-15T11:50:45;20.20;12.40
1381;DHT22;684;48.342;10.096;2023-05-15T11:53:12;20.30;13.50
1381;DHT22;684;48.342;10.096;2023-05-15T11:55:40;20.50;14.00
1381;DHT22;684;48.342;10.096;2023-05-15T11:58:12;20.60;12.90
1381;DHT22;684;48.342;10.096;2023-05-15T12:00:39;20.70;11.90
1381;DHT22;684;48.342;10.096;2023-05-15T12:03:10;20.80;11.60
1381;DHT22;684;48.342;10.096;2023-05-15T12:05:39;20.90;10.50
1381;DHT22;684;48.342;10.096;2023-05-15T12:08:09;20.90;9.80
1381;DHT22;684;48.342;10.096;2023-05-15T12:10:39;21.00;10.20
1381;DHT22;684;48.342;10.096;2023-05-15T12:13:07;21.10;10.20
1381;DHT22;684;48.342;10.096;2023-05-15T12:15:36;21.20;9.20
1381;DHT22;684;48.342;10.096;2023-05-15T12:18:03;21.40;9.40
1381;DHT22;684;48.342;10.096;2023-05-15T12:20:32;21.50;9.10
1381;DHT22;684;48.342;10.096;2023-05-15T12:22:59;21.50;7.80
1381;DHT22;684;48.342;10.096;2023-05-15T12:25:27;21.50;7.30
1381;DHT22;684;48.342;10.096;2023-05-15T12:27:54;21.30;8.40
1381;DHT22;684;48.342;10.096;2023-05-15T12:30:21;21.10;10.30
1381;DHT22;684;48.342;10.096;2023-05-15T12:32:48;20.90;12.70
1381;DHT22;684;48.342;10.096;2023-05-15T12:35:15;20.70;12.10
1381;DHT22;684;48.342;10.096;2023-05-15T12:37:42;20.30;9.50
1381;DHT22;684;48.342;10.096;2023-05-15T12:40:09;19.90;9.80
1381;DHT22;684;48.342;10.096;2023-05-15T12:42:42;19.40;10.20
1381;DHT22;684;48.342;10.096;2023-05-15T12:45:13;19.10;11.70
1381;DHT22;684;48.342;10.096;2023-05-15T12:47:41;18.70;13.20
1381;DHT22;684;48.342;10.096;2023-05-15T12:50:12;18.40;13.30
1381;DHT22;684;48.342;10.096;2023-05-15T12:52:40;18.10;12.90
1381;DHT22;684;48.342;10.096;2023-05-15T12:55:15;17.80;14.00
1381;DHT22;684;48.342;10.096;2023-05-15T12:57:43;17.40;15.20
1381;DHT22;684;48.342;10.096;2023-05-15T13:00:11;17.00;16.70
1381;DHT22;684;48.342;10.096;2023-05-15T13:02:42;16.70;17.10
1381;DHT22;684;48.342;10.096;2023-05-15T13:05:10;16.50;18.10
1381;DHT22;684;48.342;10.096;2023-05-15T13:07:37;16.20;20.00
1381;DHT22;684;48.342;10.096;2023-05-15T13:10:07;16.00;21.80
1381;DHT22;684;48.342;10.096;2023-05-15T13:12:35;15.90;23.40
1381;DHT22;684;48.342;10.096;2023-05-15T13:15:04;15.80;24.40
1381;DHT22;684;48.342;10.096;2023-05-15T13:17:31;15.70;26.70
1381;DHT22;684;48.342;10.096;2023-05-15T13:19:59;15.60;27.20
1381;DHT22;684;48.342;10.096;2023-05-15T13:22:26;15.60;28.10
1381;DHT22;684;48.342;10.096;2023-05-15T13:24:52;15.60;29.00
1381;DHT22;684;48.342;10.096;2023-05-15T13:27:19;15.60;29.40
1381;DHT22;684;48.342;10.096;2023-05-15T13:29:46;15.60;29.80
1381;DHT22;684;48.342;10.096;2023-05-15T13:32:14;15.60;30.20
1381;DHT22;684;48.342;10.096;2023-05-15T13:34:41;15.60;31.40
1381;DHT22;684;48.342;10.096;2023-05-15T13:37:07;15.60;31.90
1381;DHT22;684;48.342;10.096;2023-05-15T13:39:34;15.60;31.40
1381;DHT22;684;48.342;10.096;2023-05-15T13:42:01;15.70;31.40
1381;DHT22;684;48.342;10.096;2023-05-15T13:44:28;15.80;31.70
1381;DHT22;684;48.342;10.096;2023-05-15T13:46:54;15.90;31.70
1381;DHT22;684;48.342;10.096;2023-05-15T13:49:22;16.00;31.90
1381;DHT22;684;48.342;10.096;2023-05-15T13:51:49;16.20;31.50
1381;DHT22;684;48.342;10.096;2023-05-15T13:54:16;16.30;30.70
1381;DHT22;684;48.342;10.096;2023-05-15T13:56:42;16.40;30.10
1381;DHT22;684;48.342;10.096;2023-05-15T13:59:09;16.50;29.30
1381;DHT22;684;48.342;10.096;2023-05-15T14:01:36;16.50;29.60
1381;DHT22;684;48.342;10.096;2023-05-15T14:04:03;16.50;29.00
1381;DHT22;684;48.342;10.096;2023-05-15T14:06:31;16.60;30.40
1381;DHT22;684;48.342;10.096;2023-05-15T14:08:57;16.70;29.50
1381;DHT22;684;48.342;10.096;2023-05-15T14:11:24;16.70;29.30
1381;DHT22;684;48.342;10.096;2023-05-15T14:13:51;16.80;29.30
1381;DHT22;684;48.342;10.096;2023-05-15T14:16:18;16.90;28.50
1381;DHT22;684;48.342;10.096;2023-05-15T14:18:44;17.10;27.90
1381;DHT22;684;48.342;10.096;2023-05-15T14:21:11;17.10;27.90
1381;DHT22;684;48.342;10.096;2023-05-15T14:23:39;17.20;27.80
1381;DHT22;684;48.342;10.096;2023-05-15T14:26:06;17.20;26.80
1381;DHT22;684;48.342;10.096;2023-05-15T14:28:33;17.20;25.90
1381;DHT22;684;48.342;10.096;2023-05-15T14:31:00;17.10;26.10
1381;DHT22;684;48.342;10.096;2023-05-15T14:33:26;17.00;26.70
1381;DHT22;684;48.342;10.096;2023-05-15T14:35:53;16.80;27.30
1381;DHT22;684;48.342;10.096;2023-05-15T14:38:20;16.80;28.10
1381;DHT22;684;48.342;10.096;2023-05-15T14:40:48;16.80;28.30
1381;DHT22;684;48.342;10.096;2023-05-15T14:43:15;16.70;29.00
1381;DHT22;684;48.342;10.096;2023-05-15T14:45:42;16.70;29.20
1381;DHT22;684;48.342;10.096;2023-05-15T14:48:08;16.70;29.90
1381;DHT22;684;48.342;10.096;2023-05-15T14:50:36;16.70;30.00
1381;DHT22;684;48.342;10.096;2023-05-15T14:53:02;16.70;30.10
1381;DHT22;684;48.342;10.096;2023-05-15T14:55:29;16.70;30.40
1381;DHT22;684;48.342;10.096;2023-05-15T14:57:58;16.60;30.40
1381;DHT22;684;48.342;10.096;2023-05-15T15:00:25;16.60;30.10
1381;DHT22;684;48.342;10.096;2023-05-15T15:02:52;16.60;29.40
1381;DHT22;684;48.342;10.096;2023-05-15T15:05:19;16.60;28.90
1381;DHT22;684;48.342;10.096;2023-05-15T15:08:00;16.60;27.70
1381;DHT22;684;48.342;10.096;2023-05-15T15:10:28;16.60;26.50
1381;DHT22;684;48.342;10.096;2023-05-15T15:12:55;16.60;26.10
1381;DHT22;684;48.342;10.096;2023-05-15T15:15:23;16.70;26.00
1381;DHT22;684;48.342;10.096;2023-05-15T15:17:50;16.80;25.00
1381;DHT22;684;48.342;10.096;2023-05-15T15:20:19;16.90;24.30
1381;DHT22;684;48.342;10.096;2023-05-15T15:22:46;16.90;24.10
1381;DHT22;684;48.342;10.096;2023-05-15T15:25:13;16.90;22.30
1381;DHT22;684;48.342;10.096;2023-05-15T15:27:40;16.90;22.20
1381;DHT22;684;48.342;10.096;2023-05-15T15:30:08;16.80;22.10
1381;DHT22;684;48.342;10.096;2023-05-15T15:32:37;16.80;21.20
1381;DHT22;684;48.342;10.096;2023-05-15T15:35:05;16.70;21.40
1381;DHT22;684;48.342;10.096;2023-05-15T15:37:32;16.60;22.50
1381;DHT22;684;48.342;10.096;2023-05-15T15:40:00;16.50;22.40
1381;DHT22;684;48.342;10.096;2023-05-15T15:42:27;16.50;23.20
1381;DHT22;684;48.342;10.096;2023-05-15T15:44:54;16.50;23.10
1381;DHT22;684;48.342;10.096;2023-05-15T15:47:21;16.50;23.00
1381;DHT22;684;48.342;10.096;2023-05-15T15:49:50;16.50;23.50
1381;DHT22;684;48.342;10.096;2023-05-15T15:52:17;16.50;23.70
1381;DHT22;684;48.342;10.096;2023-05-15T15:54:44;16.60;23.70
1381;DHT22;684;48.342;10.096;2023-05-15T15:57:12;16.70;24.30
1381;DHT22;684;48.342;10.096;2023-05-15T15:59:39;16.70;24.00
1381;DHT22;684;48.342;10.096;2023-05-15T16:02:06;16.80;23.70
1381;DHT22;684;48.342;10.096;2023-05-15T16:04:33;16.80;23.30
1381;DHT22;684;48.342;10.096;2023-05-15T16:07:02;16.80;23.00
1381;DHT22;684;48.342;10.096;2023-05-15T16:09:29;16.80;22.50
1381;DHT22;684;48.342;10.096;2023-05-15T16:11:56;16.80;21.80
1381;DHT22;684;48.342;10.096;2023-05-15T16:14:23;16.80;21.40